Terminal Aerodrome Forecast
Issued by NWS

Home | Current Version | Previous Version | Text Only | Print | Product List | Glossary On
Versions: 1 2 3 4 5 6 7 8 9 10 11 12 13 14
000
FTUS46 KSTO 211700
TAFSMF
TAF
KSMF 211731Z 2118/2218 16009KT P6SM OVC008
      TEMPO 2120/2122 BKN015
     FM212200 VRB04KT P6SM FEW015 BKN200
     FM220300 VRB04KT 4SM BR BKN015
     FM221000 33005KT 1SM BR OVC003=

USA.gov is the U.S. government's official web portal to all federal, state and local government web resources and services.